Air Resources Laboratory banner image
Air Resources Laboratory web site National Oceanic and Atmospheric Administration (NOAA)

nm metar


KABQ 202152Z VRB06KT 10SM SCT110 SCT150 SCT300 36/06 A3011 RMK AO2 SLP089
 T03610061=
KAEG 202147Z 13010KT 10SM SCT120 SCT150 34/07 A3016=
KALM 202155Z AUTO 00000KT 10SM CLR 38/02 A3001 RMK AO2=
KATS 202155Z AUTO 14011G19KT 110V170 10SM CLR 38/07 A2999 RMK AO2=
KCAO 202155Z AUTO 20010G19KT 10SM CLR 36/04 A3005 RMK AO2 SLP091 T03610039=
KCNM 202153Z AUTO 14011G19KT 10SM CLR 39/06 A2996 RMK AO2 PK WND 13027/2100
 SLP076 T03890056=
KCQC 202153Z AUTO 25008G17KT 10SM BKN110 31/07 A3027 RMK AO2 SLP134 T03110067=
KCVN 202156Z AUTO 14009G14KT 10SM CLR 37/09 A3007 RMK AO2 SLP125 T03720089=
KCVS 202158Z AUTO 12011KT 10SM FEW120 39/04 A3006 RMK AO2 SLP102 T03880042 $=
KDMN 202153Z AUTO 05004KT 10SM FEW110 37/11 A3001 RMK AO2 SLP068 T03720106=
KFMN 202153Z 26014KT 10SM CLR 35/07 A3011 RMK AO2 SLP115 T03500067=
KGNT 202155Z AUTO 23006KT 10SM SCT044 SCT070 OVC110 27/08 A3028 RMK AO2 LTG
 DSNT S THRU NW T02660083=
KGUP 202153Z AUTO 30010KT 10SM FEW100 33/06 A3021 RMK AO2 LTG DSNT NE AND E
 SLP029 T03330056=
KHMN 202158Z AUTO 19008KT 10SM CLR 40/00 A3001 RMK AO2 SLP076 T04011005 TSNO $=
KHOB 202150Z 14009G17KT 10SM SKC 38/05 A3002=
KLAM 202155Z AUTO 29010G21KT 10SM CLR 27/06 A3029 RMK AO2 T02690057=
KLRU 202155Z AUTO 09007KT 10SM CLR 38/04 A3003 RMK AO2 T03830035=
KLVS 202153Z AUTO VRB04KT 10SM SCT120 33/06 A3025 RMK AO2 LTG DSNT W RAE2058
 SLP111 P0000 T03280061=
KONM 202155Z AUTO 19010G15KT 140V200 10SM CLR 38/04 A3006 RMK AO2 T03800036=
KROW 202151Z 15015G20KT 10SM CLR 40/06 A3000 RMK AO2 SLP078 T04000056=
KRTN 202153Z AUTO 33032G46KT 10SM -RA FEW060 FEW100 BKN110 29/06 A3017 RMK AO2
 PK WND 34046/2152 WSHFT 2122 RAB43 PRESFR SLP118 P0000 T02890056=
KSAF 202153Z 18014KT 10SM CLR 33/04 A3020 RMK AO2 PK WND 16028/2128 LTG DSNT NE
 AND E SLP104 T03330044=
KSKX 202156Z AUTO 30021G28KT 280V340 10SM SCT100 30/04 A3031 RMK AO2 PK WND
 28028/2156 LTG DSNT NW SLP174 T03000039 $=
KSVC 202155Z AUTO 00000KT 10SM CLR 34/10 A3012 RMK AO2 T03370095=
KTCC 202153Z AUTO 22011G24KT 10SM CLR 41/07 A2999 RMK AO2 SLP070 T04060067=
KTCS 202153Z AUTO VRB04KT 10SM FEW120 38/06 A3005 RMK AO2 SLP071 T03780056=